createdAt,value
2018-07-21T00:01:38.608Z,21.70
2018-07-21T00:03:43.171Z,21.70
2018-07-21T00:05:47.841Z,21.70
2018-07-21T00:07:52.390Z,21.60
2018-07-21T00:09:57.096Z,21.60
2018-07-21T00:12:01.701Z,21.60
2018-07-21T00:14:06.492Z,21.60
2018-07-21T00:16:11.021Z,21.50
2018-07-21T00:18:15.635Z,21.40
2018-07-21T00:20:20.406Z,21.30
2018-07-21T00:22:25.541Z,21.30
2018-07-21T00:24:30.951Z,21.30
2018-07-21T00:26:41.138Z,21.30
2018-07-21T00:28:45.652Z,21.30
2018-07-21T00:30:50.197Z,21.30
2018-07-21T00:32:54.736Z,21.30
2018-07-21T00:34:59.358Z,21.40
2018-07-21T00:37:04.508Z,21.40
2018-07-21T00:39:12.214Z,21.30
2018-07-21T00:41:17.508Z,21.30
2018-07-21T00:43:22.711Z,21.30
2018-07-21T00:45:27.376Z,21.30
2018-07-21T00:47:32.220Z,21.20
2018-07-21T00:49:36.704Z,21.20
2018-07-21T00:51:41.220Z,21.10
2018-07-21T00:53:46.314Z,21.20
2018-07-21T00:55:50.996Z,21.10
2018-07-21T00:57:56.074Z,21.20
2018-07-21T01:00:01.247Z,21.10
2018-07-21T01:02:06.835Z,21.10
2018-07-21T01:04:14.464Z,21.10
2018-07-21T01:06:20.337Z,21.10
2018-07-21T01:08:24.931Z,21.10
2018-07-21T01:10:29.506Z,21.10
2018-07-21T01:12:34.156Z,21.00
2018-07-21T01:14:38.700Z,21.00
2018-07-21T01:16:43.238Z,21.00
2018-07-21T01:18:47.783Z,21.00
2018-07-21T01:20:52.357Z,21.00
2018-07-21T01:22:56.888Z,21.00
2018-07-21T01:25:01.359Z,21.00
2018-07-21T01:27:05.928Z,21.00
2018-07-21T01:29:10.381Z,20.90
2018-07-21T01:31:14.924Z,20.90
2018-07-21T01:33:19.481Z,21.00
2018-07-21T01:35:24.049Z,21.00
2018-07-21T01:37:28.643Z,21.00
2018-07-21T01:39:33.176Z,21.00
2018-07-21T01:41:37.842Z,21.00
2018-07-21T01:43:42.419Z,21.00
2018-07-21T01:45:47.171Z,21.00
2018-07-21T01:47:51.795Z,21.00
2018-07-21T01:49:56.332Z,21.00
2018-07-21T01:52:00.959Z,20.90
2018-07-21T01:54:05.637Z,20.90
2018-07-21T01:56:10.175Z,20.80
2018-07-21T01:58:14.720Z,20.60
2018-07-21T02:02:23.474Z,20.20
2018-07-21T02:04:27.992Z,20.10
2018-07-21T02:06:32.614Z,19.90
2018-07-21T02:08:37.331Z,19.70
2018-07-21T02:10:42.044Z,19.70
2018-07-21T02:12:47.055Z,19.60
2018-07-21T02:14:51.663Z,19.60
2018-07-21T02:16:56.429Z,19.50
2018-07-21T02:19:01.042Z,19.50
2018-07-21T02:21:05.681Z,19.60
2018-07-21T02:23:10.232Z,19.60
2018-07-21T02:25:14.747Z,19.60
2018-07-21T02:27:19.436Z,19.50
2018-07-21T02:29:24.558Z,19.50
2018-07-21T02:31:29.214Z,19.50
2018-07-21T02:33:33.737Z,19.40
2018-07-21T02:35:38.356Z,19.40
2018-07-21T02:37:43.505Z,19.50
2018-07-21T02:39:48.007Z,19.50
2018-07-21T02:41:52.572Z,19.50
2018-07-21T02:43:57.093Z,19.50
2018-07-21T02:46:01.651Z,19.40
2018-07-21T02:48:06.390Z,19.40
2018-07-21T02:50:10.846Z,19.40
2018-07-21T02:52:15.377Z,19.40
2018-07-21T02:56:24.059Z,19.50
2018-07-21T02:58:29.370Z,19.50
2018-07-21T03:00:33.937Z,19.50
2018-07-21T03:02:38.548Z,19.50
2018-07-21T03:04:43.116Z,19.50
2018-07-21T03:06:47.744Z,19.50
2018-07-21T03:08:52.252Z,19.50
2018-07-21T03:10:56.906Z,19.50
2018-07-21T03:13:01.469Z,19.50
2018-07-21T03:15:06.190Z,19.50
2018-07-21T03:17:10.698Z,19.50
2018-07-21T03:19:15.219Z,19.50
2018-07-21T03:21:19.784Z,19.50
2018-07-21T03:23:24.348Z,19.50
2018-07-21T03:25:28.920Z,19.50
2018-07-21T03:27:33.782Z,19.50
2018-07-21T03:29:38.367Z,19.60
2018-07-21T03:31:42.928Z,19.60
2018-07-21T03:33:50.385Z,19.50
2018-07-21T03:35:54.909Z,19.50
2018-07-21T03:37:59.524Z,19.50
2018-07-21T03:40:04.227Z,19.40
2018-07-21T03:42:08.749Z,19.40
2018-07-21T03:44:13.263Z,19.30
2018-07-21T03:48:21.932Z,19.30
2018-07-21T03:50:26.493Z,19.30
2018-07-21T03:52:31.088Z,19.40
2018-07-21T03:54:35.713Z,19.30
2018-07-21T03:56:40.396Z,19.40
2018-07-21T03:58:44.996Z,19.40
2018-07-21T04:00:49.528Z,19.40
2018-07-21T04:02:54.125Z,19.40
2018-07-21T04:04:58.622Z,19.40
2018-07-21T04:07:03.312Z,19.40
2018-07-21T04:09:10.085Z,19.40
2018-07-21T04:11:14.609Z,19.40
2018-07-21T04:13:19.154Z,19.40
2018-07-21T04:15:23.625Z,19.30
2018-07-21T04:17:28.785Z,19.30
2018-07-21T04:19:33.282Z,19.30
2018-07-21T04:21:37.771Z,19.30
2018-07-21T04:23:42.342Z,19.30
2018-07-21T04:25:46.870Z,19.30
2018-07-21T04:27:51.406Z,19.30
2018-07-21T04:30:02.366Z,19.30
2018-07-21T04:32:06.958Z,19.30
2018-07-21T04:34:11.491Z,19.30
2018-07-21T04:36:16.020Z,19.40
2018-07-21T04:38:20.613Z,19.30
2018-07-21T04:40:25.727Z,19.30
2018-07-21T04:42:30.292Z,19.30
2018-07-21T04:44:35.003Z,19.30
2018-07-21T04:46:39.564Z,19.30
2018-07-21T04:48:44.138Z,19.30
2018-07-21T04:50:48.663Z,19.20
2018-07-21T04:52:53.284Z,19.20
2018-07-21T04:54:57.768Z,19.10
2018-07-21T04:57:02.337Z,19.00
2018-07-21T04:59:06.868Z,19.00
2018-07-21T05:01:11.384Z,19.00
2018-07-21T05:03:15.932Z,19.00
2018-07-21T05:05:20.462Z,19.00
2018-07-21T05:07:25.051Z,19.00
2018-07-21T05:09:29.590Z,19.00
2018-07-21T05:11:34.103Z,19.00
2018-07-21T05:13:38.648Z,19.00
2018-07-21T05:15:43.202Z,19.00
2018-07-21T05:17:47.700Z,19.00
2018-07-21T05:19:52.189Z,19.00
2018-07-21T05:21:56.724Z,19.00
2018-07-21T05:24:01.266Z,19.00
2018-07-21T05:26:06.283Z,19.00
2018-07-21T05:28:10.855Z,19.00
2018-07-21T05:30:15.376Z,19.00
2018-07-21T05:32:19.894Z,19.00
2018-07-21T05:34:24.448Z,19.00
2018-07-21T05:36:29.030Z,19.00
2018-07-21T05:38:33.621Z,18.90
2018-07-21T05:40:38.209Z,18.90
2018-07-21T05:42:42.703Z,18.80
2018-07-21T05:44:47.871Z,18.80
2018-07-21T05:46:52.407Z,18.80
2018-07-21T05:48:57.025Z,18.80
2018-07-21T05:51:01.558Z,18.80
2018-07-21T05:53:06.098Z,18.80
2018-07-21T05:55:10.748Z,18.80
2018-07-21T05:57:15.300Z,18.90
2018-07-21T05:59:19.931Z,18.90
2018-07-21T06:01:24.487Z,18.90
2018-07-21T06:03:29.077Z,18.90
2018-07-21T06:05:34.616Z,18.90
2018-07-21T06:07:39.093Z,18.90
2018-07-21T06:09:44.220Z,18.90
2018-07-21T06:11:48.815Z,18.90
2018-07-21T06:13:53.427Z,18.90
2018-07-21T06:15:57.915Z,18.90
2018-07-21T06:18:02.468Z,18.90
2018-07-21T06:20:08.037Z,19.00
2018-07-21T06:22:12.656Z,18.90
2018-07-21T06:24:17.268Z,18.90
2018-07-21T06:26:21.857Z,18.90
2018-07-21T06:28:26.483Z,18.80
2018-07-21T06:30:31.035Z,18.80
2018-07-21T06:32:35.603Z,18.90
2018-07-21T06:34:40.194Z,18.90
2018-07-21T06:36:44.805Z,19.00
2018-07-21T06:38:50.634Z,19.00
2018-07-21T06:40:55.169Z,19.00
2018-07-21T06:42:59.757Z,19.00
2018-07-21T06:45:04.416Z,19.00
2018-07-21T06:47:08.904Z,19.00
2018-07-21T06:49:13.499Z,19.10
2018-07-21T06:51:18.051Z,19.10
2018-07-21T06:53:22.701Z,19.10
2018-07-21T06:55:27.283Z,19.10
2018-07-21T06:57:31.914Z,19.20
2018-07-21T06:59:38.772Z,19.20
2018-07-21T07:01:44.686Z,19.20
2018-07-21T07:03:49.319Z,19.30
2018-07-21T07:05:53.834Z,19.30
2018-07-21T07:07:58.382Z,19.30
2018-07-21T07:10:03.117Z,19.30
2018-07-21T07:12:07.700Z,19.40
2018-07-21T07:14:12.329Z,19.40
2018-07-21T07:16:16.872Z,19.50
2018-07-21T07:18:21.314Z,19.50
2018-07-21T07:20:25.806Z,19.50
2018-07-21T07:22:31.288Z,19.50
2018-07-21T07:24:35.882Z,19.50
2018-07-21T07:26:40.494Z,19.60
2018-07-21T07:28:45.036Z,19.60
2018-07-21T07:30:49.596Z,19.70
2018-07-21T07:32:54.726Z,19.70
2018-07-21T07:34:59.897Z,19.80
2018-07-21T07:37:04.646Z,19.90
2018-07-21T07:39:10.844Z,19.90
2018-07-21T07:41:15.548Z,19.80
2018-07-21T07:43:20.129Z,19.90
2018-07-21T07:45:24.684Z,19.90
2018-07-21T07:49:33.436Z,19.90
2018-07-21T07:51:37.973Z,20.00
2018-07-21T07:53:43.491Z,19.90
2018-07-21T07:55:48.169Z,20.00
2018-07-21T07:57:52.759Z,19.90
2018-07-21T07:59:57.319Z,19.90
2018-07-21T08:02:01.864Z,20.00
2018-07-21T08:04:06.537Z,19.90
2018-07-21T08:06:11.001Z,19.90
2018-07-21T08:08:15.501Z,19.90
2018-07-21T08:10:20.033Z,20.00
2018-07-21T08:12:24.554Z,20.00
2018-07-21T08:14:29.194Z,20.00
2018-07-21T08:16:33.696Z,20.10
2018-07-21T08:18:38.949Z,20.00
2018-07-21T08:20:43.559Z,20.00
2018-07-21T08:22:48.402Z,20.10
2018-07-21T08:24:53.568Z,20.10
2018-07-21T08:26:58.118Z,20.10
2018-07-21T08:29:02.792Z,20.20
2018-07-21T08:31:07.462Z,20.20
2018-07-21T08:33:11.914Z,20.20
2018-07-21T08:35:16.615Z,20.20
2018-07-21T08:37:21.263Z,20.30
2018-07-21T08:39:26.373Z,20.30
2018-07-21T08:41:30.928Z,20.40
2018-07-21T08:43:35.637Z,20.50
2018-07-21T08:45:40.870Z,20.60
2018-07-21T08:47:45.465Z,20.70
2018-07-21T08:49:50.003Z,20.80
2018-07-21T08:51:54.482Z,20.90
2018-07-21T08:53:59.096Z,21.00
2018-07-21T08:56:03.650Z,21.10
2018-07-21T08:58:08.210Z,21.20
2018-07-21T09:00:12.788Z,21.40
2018-07-21T09:02:17.281Z,21.60
2018-07-21T09:04:21.748Z,21.80
2018-07-21T09:06:26.335Z,22.20
2018-07-21T09:08:30.830Z,22.30
2018-07-21T09:10:35.434Z,22.40
2018-07-21T09:12:39.980Z,22.50
2018-07-21T09:14:44.571Z,22.50
2018-07-21T09:16:49.476Z,22.40
2018-07-21T09:18:53.958Z,22.40
2018-07-21T09:20:58.808Z,22.60
2018-07-21T09:23:03.471Z,22.60
2018-07-21T09:25:08.019Z,22.70
2018-07-21T09:27:12.538Z,22.70
2018-07-21T09:29:17.061Z,22.70
2018-07-21T09:31:22.140Z,22.70
2018-07-21T09:33:26.688Z,22.70
2018-07-21T09:35:31.307Z,22.80
2018-07-21T09:37:36.951Z,23.00
2018-07-21T09:39:41.552Z,23.20
2018-07-21T09:41:46.278Z,23.30
2018-07-21T09:43:50.759Z,23.40
2018-07-21T09:45:55.375Z,23.50
2018-07-21T09:48:00.164Z,23.70
2018-07-21T09:50:05.713Z,23.70
2018-07-21T09:52:10.429Z,23.80
2018-07-21T09:54:14.999Z,23.80
2018-07-21T09:56:19.596Z,23.60
2018-07-21T09:58:24.185Z,23.60
2018-07-21T10:00:34.147Z,23.50
2018-07-21T10:02:38.822Z,23.50
2018-07-21T10:04:43.488Z,23.60
2018-07-21T10:06:48.284Z,23.50
2018-07-21T10:08:53.058Z,23.50
2018-07-21T10:10:58.139Z,23.50
2018-07-21T10:13:02.980Z,23.50
2018-07-21T10:15:07.976Z,23.50
2018-07-21T10:17:12.900Z,23.60
2018-07-21T10:19:17.513Z,23.80
2018-07-21T10:21:24.026Z,24.00
2018-07-21T10:23:28.847Z,24.20
2018-07-21T10:25:38.925Z,24.40
2018-07-21T10:27:48.753Z,24.70
2018-07-21T10:29:53.524Z,25.00
2018-07-21T10:31:59.567Z,25.20
2018-07-21T10:34:04.195Z,25.30
2018-07-21T10:36:08.728Z,25.50
2018-07-21T10:38:13.288Z,25.60
2018-07-21T10:40:17.936Z,25.70
2018-07-21T10:42:22.574Z,25.80
2018-07-21T10:44:27.102Z,25.90
2018-07-21T10:46:31.903Z,25.70
2018-07-21T10:48:36.602Z,25.60
2018-07-21T10:50:41.244Z,25.30
2018-07-21T10:52:45.799Z,25.40
2018-07-21T10:54:50.368Z,25.50
2018-07-21T10:56:54.951Z,25.40
2018-07-21T10:58:59.524Z,25.30
2018-07-21T11:01:04.104Z,25.60
2018-07-21T11:03:08.613Z,25.70
2018-07-21T11:05:13.132Z,25.80
2018-07-21T11:07:17.682Z,25.90
2018-07-21T11:09:22.122Z,25.80
2018-07-21T11:11:26.791Z,25.60
2018-07-21T11:13:31.337Z,25.30
2018-07-21T11:15:35.868Z,25.20
2018-07-21T11:17:40.347Z,25.30
2018-07-21T11:19:44.821Z,25.40
2018-07-21T11:21:49.384Z,25.60
2018-07-21T11:23:53.885Z,25.80
2018-07-21T11:25:58.445Z,26.00
2018-07-21T11:28:02.935Z,26.30
2018-07-21T11:30:08.037Z,26.50
2018-07-21T11:32:12.597Z,26.50
2018-07-21T11:34:17.050Z,26.50
2018-07-21T11:36:21.542Z,26.50
2018-07-21T11:38:26.097Z,26.60
2018-07-21T11:40:30.573Z,26.60
2018-07-21T11:42:35.130Z,26.60
2018-07-21T11:44:39.604Z,26.50
2018-07-21T11:46:44.118Z,26.40
2018-07-21T11:48:48.590Z,26.40
2018-07-21T11:50:53.086Z,26.30
2018-07-21T11:52:57.604Z,26.40
2018-07-21T11:55:02.093Z,26.50
2018-07-21T11:57:06.662Z,26.50
2018-07-21T11:59:11.155Z,26.40
2018-07-21T12:01:15.714Z,26.30
2018-07-21T12:03:20.146Z,26.30
2018-07-21T12:05:24.674Z,26.30
2018-07-21T12:07:29.287Z,26.30
2018-07-21T12:09:33.701Z,26.40
2018-07-21T12:11:38.902Z,26.40
2018-07-21T12:13:43.398Z,26.20
2018-07-21T12:15:47.826Z,26.10
2018-07-21T12:17:52.384Z,26.20
2018-07-21T12:22:00.886Z,26.20
2018-07-21T12:24:05.408Z,26.20
2018-07-21T12:26:09.875Z,26.30
2018-07-21T12:28:14.462Z,26.20
2018-07-21T12:30:18.932Z,26.10
2018-07-21T12:32:23.467Z,26.10
2018-07-21T12:34:27.951Z,26.10
2018-07-21T12:36:32.507Z,26.20
2018-07-21T12:38:36.978Z,26.20
2018-07-21T12:40:41.414Z,26.40
2018-07-21T12:42:45.913Z,26.50
2018-07-21T12:44:50.369Z,26.60
2018-07-21T12:46:55.041Z,26.60
2018-07-21T12:48:59.664Z,26.60
2018-07-21T12:51:04.573Z,26.60
2018-07-21T12:53:09.322Z,26.60
2018-07-21T12:55:13.804Z,26.70
2018-07-21T12:57:18.439Z,26.90
2018-07-21T12:59:23.547Z,27.20
2018-07-21T13:01:28.032Z,27.40
2018-07-21T13:03:32.616Z,27.60
2018-07-21T13:05:37.182Z,27.40
2018-07-21T13:07:41.803Z,27.40
2018-07-21T13:09:46.445Z,27.30
2018-07-21T13:11:50.992Z,27.30
2018-07-21T13:13:55.617Z,27.30
2018-07-21T13:16:00.103Z,27.40
2018-07-21T13:18:04.655Z,27.60
2018-07-21T13:20:09.222Z,27.60
2018-07-21T13:22:13.891Z,27.70
2018-07-21T13:24:18.398Z,27.60
2018-07-21T13:26:22.943Z,27.50
2018-07-21T13:30:31.501Z,27.50
2018-07-21T13:32:36.060Z,27.50
2018-07-21T13:34:40.606Z,27.40
2018-07-21T13:36:45.126Z,27.30
2018-07-21T13:38:49.636Z,27.40
2018-07-21T13:40:54.273Z,27.30
2018-07-21T13:47:06.995Z,27.10
2018-07-21T13:49:11.497Z,27.20
2018-07-21T13:51:16.050Z,27.20
2018-07-21T13:55:24.550Z,27.00
2018-07-21T13:57:29.143Z,27.00
2018-07-21T13:59:33.583Z,27.00
2018-07-21T14:01:38.086Z,27.10
2018-07-21T14:03:43.063Z,27.10
2018-07-21T14:05:47.816Z,27.10
2018-07-21T14:07:52.341Z,27.10
2018-07-21T14:09:56.872Z,27.10
2018-07-21T14:12:01.493Z,27.00
2018-07-21T14:14:06.330Z,27.10
2018-07-21T14:16:10.847Z,26.80
2018-07-21T14:18:15.610Z,26.60
2018-07-21T14:20:20.404Z,26.50
2018-07-21T14:22:25.028Z,26.50
2018-07-21T14:24:29.495Z,26.50
2018-07-21T14:26:34.983Z,26.40
2018-07-21T14:28:39.533Z,26.40
2018-07-21T14:30:44.021Z,26.40
2018-07-21T14:32:48.826Z,26.40
2018-07-21T14:34:53.450Z,26.50
2018-07-21T14:36:57.952Z,26.60
2018-07-21T14:39:02.797Z,26.50
2018-07-21T14:41:07.980Z,26.50
2018-07-21T14:45:23.138Z,26.40
2018-07-21T14:47:28.559Z,26.30
2018-07-21T14:49:33.057Z,26.20
2018-07-21T14:51:37.594Z,26.30
2018-07-21T14:53:42.160Z,26.40
2018-07-21T14:55:46.652Z,26.50
2018-07-21T14:57:51.171Z,26.60
2018-07-21T14:59:56.307Z,26.60
2018-07-21T15:02:00.776Z,26.70
2018-07-21T15:04:05.344Z,26.80
2018-07-21T15:06:09.811Z,26.90
2018-07-21T15:08:14.439Z,27.10
2018-07-21T15:10:19.065Z,27.30
2018-07-21T15:12:23.682Z,27.60
2018-07-21T15:14:28.181Z,27.80
2018-07-21T15:16:32.781Z,27.90
2018-07-21T15:18:37.374Z,28.10
2018-07-21T15:20:41.892Z,28.10
2018-07-21T15:22:46.520Z,28.10
2018-07-21T15:24:51.343Z,28.20
2018-07-21T15:26:57.648Z,28.30
2018-07-21T15:29:02.213Z,28.30
2018-07-21T15:31:07.057Z,28.20
2018-07-21T15:33:11.744Z,28.10
2018-07-21T15:35:17.410Z,27.90
2018-07-21T15:37:22.096Z,27.40
2018-07-21T15:39:26.648Z,27.00
2018-07-21T15:41:31.155Z,26.60
2018-07-21T15:43:35.951Z,26.30
2018-07-21T15:45:40.444Z,26.00
2018-07-21T15:47:45.739Z,25.50
2018-07-21T15:49:50.399Z,25.10
2018-07-21T15:51:55.942Z,24.70
2018-07-21T15:54:00.608Z,24.50
2018-07-21T15:56:05.109Z,24.40
2018-07-21T15:58:10.164Z,24.20
2018-07-21T16:00:14.771Z,24.10
2018-07-21T16:02:19.383Z,24.10
2018-07-21T16:04:23.880Z,24.10
2018-07-21T16:06:28.392Z,23.90
2018-07-21T16:08:32.846Z,23.80
2018-07-21T16:10:37.306Z,23.60
2018-07-21T16:12:41.921Z,23.40
2018-07-21T16:14:46.522Z,23.20
2018-07-21T16:16:51.041Z,23.10
2018-07-21T16:18:55.584Z,23.00
2018-07-21T16:21:00.158Z,22.80
2018-07-21T16:23:04.656Z,22.60
2018-07-21T16:25:09.192Z,22.70
2018-07-21T16:27:13.802Z,22.70
2018-07-21T16:31:22.347Z,22.70
2018-07-21T16:33:26.901Z,22.80
2018-07-21T16:35:32.125Z,22.80
2018-07-21T16:37:36.727Z,22.70
2018-07-21T16:39:43.090Z,22.50
2018-07-21T16:41:47.832Z,22.20
2018-07-21T16:43:52.705Z,22.10
2018-07-21T16:45:57.440Z,22.10
2018-07-21T16:48:02.038Z,22.10
2018-07-21T16:50:06.640Z,22.10
2018-07-21T16:52:11.106Z,22.10
2018-07-21T16:54:15.800Z,22.10
2018-07-21T16:56:20.317Z,22.10
2018-07-21T16:58:25.014Z,22.10
2018-07-21T17:00:29.740Z,22.10
2018-07-21T17:02:35.972Z,22.10
2018-07-21T17:04:40.775Z,22.10
2018-07-21T17:06:45.421Z,22.10
2018-07-21T17:08:51.207Z,22.10
2018-07-21T17:10:55.842Z,22.00
2018-07-21T17:13:00.413Z,21.90
2018-07-21T17:15:05.702Z,21.90
2018-07-21T17:17:11.372Z,21.90
2018-07-21T17:19:16.215Z,21.80
2018-07-21T17:21:21.088Z,21.70
2018-07-21T17:23:26.083Z,21.70
2018-07-21T17:25:31.433Z,21.80
2018-07-21T17:27:36.556Z,21.80
2018-07-21T17:29:41.345Z,21.90
2018-07-21T17:31:46.106Z,21.80
2018-07-21T17:33:50.738Z,21.80
2018-07-21T17:35:55.357Z,21.80
2018-07-21T17:38:00.597Z,21.70
2018-07-21T17:40:05.333Z,21.60
2018-07-21T17:42:10.332Z,21.60
2018-07-21T17:44:14.836Z,21.60
2018-07-21T17:46:19.475Z,21.60
2018-07-21T17:48:24.098Z,21.50
2018-07-21T17:50:28.685Z,21.40
2018-07-21T17:52:33.189Z,21.40
2018-07-21T17:54:37.707Z,21.40
2018-07-21T17:56:43.121Z,21.30
2018-07-21T17:58:48.611Z,21.30
2018-07-21T18:00:54.244Z,21.20
2018-07-21T18:02:59.087Z,21.20
2018-07-21T18:05:03.951Z,21.20
2018-07-21T18:07:08.972Z,21.20
2018-07-21T18:09:13.517Z,21.10
2018-07-21T18:11:18.129Z,21.10
2018-07-21T18:13:22.787Z,21.00
2018-07-21T18:15:27.384Z,21.00
2018-07-21T18:17:31.957Z,20.90
2018-07-21T18:19:36.588Z,20.90
2018-07-21T18:21:41.145Z,20.90
2018-07-21T18:23:45.702Z,20.80
2018-07-21T18:25:50.315Z,20.80
2018-07-21T18:29:59.184Z,20.60
2018-07-21T18:32:03.797Z,20.50
2018-07-21T18:34:08.792Z,20.40
2018-07-21T18:36:13.390Z,20.30
2018-07-21T18:38:17.901Z,20.30
2018-07-21T18:40:22.580Z,20.20
2018-07-21T18:42:27.100Z,20.30
2018-07-21T18:44:31.642Z,20.30
2018-07-21T18:46:36.569Z,20.30
2018-07-21T18:48:41.341Z,20.20
2018-07-21T18:50:45.887Z,20.20
2018-07-21T18:52:50.435Z,20.10
2018-07-21T18:54:54.981Z,20.00
2018-07-21T18:56:59.607Z,19.90
2018-07-21T18:59:04.176Z,19.90
2018-07-21T19:01:09.343Z,19.70
2018-07-21T19:03:13.806Z,19.70
2018-07-21T19:05:18.435Z,19.60
2018-07-21T19:09:26.948Z,19.50
2018-07-21T19:11:32.328Z,19.40
2018-07-21T19:13:37.676Z,19.40
2018-07-21T19:15:47.580Z,19.30
2018-07-21T19:17:52.970Z,19.40
2018-07-21T19:20:02.691Z,19.30
2018-07-21T19:22:07.533Z,19.30
2018-07-21T19:24:12.385Z,19.30
2018-07-21T19:26:22.453Z,19.30
2018-07-21T19:28:27.341Z,19.30
2018-07-21T19:30:31.855Z,19.30
2018-07-21T19:32:41.798Z,19.30
2018-07-21T19:34:47.311Z,19.30
2018-07-21T19:36:54.866Z,19.30
2018-07-21T19:38:59.417Z,19.30
2018-07-21T19:41:09.401Z,19.30
2018-07-21T19:43:14.367Z,19.30
2018-07-21T19:45:19.495Z,19.20
2018-07-21T19:47:24.217Z,19.20
2018-07-21T19:49:28.857Z,19.20
2018-07-21T19:51:33.920Z,19.10
2018-07-21T19:53:38.453Z,19.10
2018-07-21T19:55:42.976Z,19.00
2018-07-21T19:57:47.743Z,19.00
2018-07-21T19:59:52.268Z,19.00
2018-07-21T20:01:56.762Z,19.00
2018-07-21T20:04:01.478Z,19.00
2018-07-21T20:06:06.029Z,18.90
2018-07-21T20:08:10.657Z,18.80
2018-07-21T20:10:15.209Z,18.80
2018-07-21T20:12:19.901Z,18.70
2018-07-21T20:14:24.380Z,18.70
2018-07-21T20:16:29.609Z,18.60
2018-07-21T20:18:34.270Z,18.60
2018-07-21T20:20:38.745Z,18.60
2018-07-21T20:22:43.339Z,18.60
2018-07-21T20:24:47.830Z,18.50
2018-07-21T20:26:52.766Z,18.50
2018-07-21T20:28:57.280Z,18.60
2018-07-21T20:31:01.923Z,18.60
2018-07-21T20:33:06.750Z,18.60
2018-07-21T20:35:11.270Z,18.60
2018-07-21T20:37:15.798Z,18.60
2018-07-21T20:39:20.478Z,18.50
2018-07-21T20:41:25.119Z,18.50
2018-07-21T20:43:29.961Z,18.50
2018-07-21T20:45:34.662Z,18.60
2018-07-21T20:47:39.175Z,18.50
2018-07-21T20:49:43.869Z,18.50
2018-07-21T20:51:48.491Z,18.50
2018-07-21T20:53:53.186Z,18.50
2018-07-21T20:55:58.086Z,18.50
2018-07-21T20:58:03.427Z,18.50
2018-07-21T21:00:08.637Z,18.60
2018-07-21T21:02:13.115Z,18.60
2018-07-21T21:04:17.784Z,18.60
2018-07-21T21:06:23.734Z,18.60
2018-07-21T21:08:28.314Z,18.60
2018-07-21T21:10:32.904Z,18.60
2018-07-21T21:12:38.869Z,18.60
2018-07-21T21:14:43.412Z,18.60
2018-07-21T21:16:50.402Z,18.60
2018-07-21T21:18:56.244Z,18.60
2018-07-21T21:21:02.525Z,18.60
2018-07-21T21:23:08.114Z,18.60
2018-07-21T21:25:12.930Z,18.60
2018-07-21T21:27:17.669Z,18.60
2018-07-21T21:29:22.465Z,18.60
2018-07-21T21:31:28.293Z,18.60
2018-07-21T21:33:33.022Z,18.60
2018-07-21T21:35:39.770Z,18.60
2018-07-21T21:37:46.104Z,18.60
2018-07-21T21:39:51.372Z,18.50
2018-07-21T21:41:56.065Z,18.50
2018-07-21T21:44:00.921Z,18.50
2018-07-21T21:46:06.087Z,18.50
2018-07-21T21:48:10.967Z,18.40
2018-07-21T21:50:15.589Z,18.40
2018-07-21T21:52:20.469Z,18.40
2018-07-21T21:54:25.073Z,18.30
2018-07-21T21:58:34.091Z,18.20
2018-07-21T22:01:15.900Z,18.20
2018-07-21T22:03:20.431Z,18.20
2018-07-21T22:05:25.048Z,18.20
2018-07-21T22:07:29.616Z,18.20
2018-07-21T22:09:35.249Z,18.20
2018-07-21T22:11:39.833Z,18.20
2018-07-21T22:13:44.373Z,18.20
2018-07-21T22:15:48.877Z,18.20
2018-07-21T22:17:53.344Z,18.20
2018-07-21T22:19:57.867Z,18.20
2018-07-21T22:22:02.334Z,18.30
2018-07-21T22:24:06.932Z,18.20
2018-07-21T22:26:11.542Z,18.20
2018-07-21T22:28:16.063Z,18.20
2018-07-21T22:30:21.531Z,18.20
2018-07-21T22:32:26.024Z,18.20
2018-07-21T22:34:30.636Z,18.30
2018-07-21T22:36:35.169Z,18.30
2018-07-21T22:38:39.771Z,18.30
2018-07-21T22:40:44.318Z,18.30
2018-07-21T22:42:48.813Z,18.30
2018-07-21T22:44:53.330Z,18.20
2018-07-21T22:46:58.073Z,18.30
2018-07-21T22:49:02.611Z,18.20
2018-07-21T22:51:07.246Z,18.20
2018-07-21T22:53:11.729Z,18.20
2018-07-21T22:55:16.302Z,18.20
2018-07-21T22:57:20.795Z,18.20
2018-07-21T22:59:25.300Z,18.20
2018-07-21T23:01:29.810Z,18.20
2018-07-21T23:03:34.363Z,18.10
2018-07-21T23:05:38.956Z,18.10
2018-07-21T23:07:43.380Z,18.10
2018-07-21T23:09:47.820Z,18.20
2018-07-21T23:11:52.365Z,18.10
2018-07-21T23:13:56.861Z,18.10
2018-07-21T23:16:01.331Z,18.10
2018-07-21T23:18:05.835Z,18.10
2018-07-21T23:20:10.345Z,18.10
2018-07-21T23:22:14.909Z,18.10
2018-07-21T23:24:19.421Z,18.10
2018-07-21T23:26:23.905Z,18.10
2018-07-21T23:28:28.403Z,18.10
2018-07-21T23:30:32.936Z,18.10
2018-07-21T23:32:37.559Z,18.10
2018-07-21T23:34:42.062Z,18.10
2018-07-21T23:36:47.355Z,18.10
2018-07-21T23:38:51.814Z,18.00
2018-07-21T23:40:56.331Z,18.00
2018-07-21T23:43:00.866Z,18.00
2018-07-21T23:45:05.842Z,17.90
2018-07-21T23:47:10.377Z,17.90
2018-07-21T23:49:15.016Z,17.90
2018-07-21T23:51:20.229Z,17.90
2018-07-21T23:53:24.706Z,17.90
2018-07-21T23:55:29.224Z,17.90
2018-07-21T23:57:33.745Z,17.90
2018-07-21T23:59:38.313Z,17.90
